createdAt,value
2019-06-20T00:00:50.597Z,24.50
2019-06-20T00:03:23.670Z,24.52
2019-06-20T00:05:58.272Z,24.52
2019-06-20T00:08:32.688Z,24.51
2019-06-20T00:11:07.306Z,24.48
2019-06-20T00:13:41.694Z,24.46
2019-06-20T00:16:15.941Z,24.45
2019-06-20T00:18:48.853Z,24.36
2019-06-20T00:21:24.242Z,24.20
2019-06-20T00:23:58.678Z,24.09
2019-06-20T00:26:33.090Z,24.13
2019-06-20T00:29:07.651Z,24.17
2019-06-20T00:31:41.971Z,24.17
2019-06-20T00:34:16.275Z,24.06
2019-06-20T00:36:51.460Z,24.11
2019-06-20T00:39:25.947Z,24.11
2019-06-20T00:42:00.267Z,23.99
2019-06-20T00:44:34.703Z,23.99
2019-06-20T00:47:07.636Z,23.99
2019-06-20T00:49:41.932Z,23.88
2019-06-20T00:52:16.295Z,23.81
2019-06-20T00:54:50.732Z,23.86
2019-06-20T00:57:23.702Z,23.88
2019-06-20T00:59:57.938Z,23.86
2019-06-20T01:02:32.649Z,24.05
2019-06-20T01:07:20.302Z,24.13
2019-06-20T01:09:54.943Z,23.97
2019-06-20T01:12:29.311Z,23.95
2019-06-20T01:15:04.688Z,23.87
2019-06-20T01:17:40.273Z,23.86
2019-06-20T01:20:16.135Z,23.83
2019-06-20T01:22:50.712Z,23.77
2019-06-20T01:25:43.543Z,23.77
2019-06-20T01:28:17.788Z,23.70
2019-06-20T01:30:50.707Z,23.58
2019-06-20T01:33:24.939Z,23.58
2019-06-20T01:35:59.278Z,23.58
2019-06-20T01:40:42.886Z,23.59
2019-06-20T01:43:17.272Z,23.39
2019-06-20T01:45:51.676Z,23.39
2019-06-20T01:48:25.939Z,23.44
2019-06-20T01:51:00.346Z,23.44
2019-06-20T01:53:34.946Z,23.44
2019-06-20T01:56:09.648Z,23.38
2019-06-20T01:58:44.114Z,23.31
2019-06-20T02:01:18.703Z,23.34
2019-06-20T02:03:53.267Z,23.35
2019-06-20T02:06:27.615Z,23.32
2019-06-20T02:09:02.245Z,23.35
2019-06-20T02:11:37.152Z,23.36
2019-06-20T02:14:11.688Z,23.34
2019-06-20T02:16:46.241Z,23.34
2019-06-20T02:19:20.697Z,23.34
2019-06-20T02:21:53.700Z,23.30
2019-06-20T02:24:27.951Z,23.31
2019-06-20T02:27:02.344Z,23.31
2019-06-20T02:29:36.655Z,23.31
2019-06-20T02:32:11.105Z,23.16
2019-06-20T02:34:45.300Z,23.20
2019-06-20T02:37:19.861Z,23.20
2019-06-20T02:39:54.268Z,23.16
2019-06-20T02:42:28.706Z,23.16
2019-06-20T02:45:03.074Z,23.15
2019-06-20T02:47:37.697Z,23.18
2019-06-20T02:50:11.063Z,23.25
2019-06-20T02:52:45.756Z,23.01
2019-06-20T02:55:20.279Z,23.01
2019-06-20T02:57:55.871Z,22.95
2019-06-20T03:00:45.867Z,23.00
2019-06-20T03:03:20.104Z,22.89
2019-06-20T03:05:54.673Z,22.82
2019-06-20T03:08:29.685Z,22.85
2019-06-20T03:11:03.998Z,22.84
2019-06-20T03:13:38.337Z,22.55
2019-06-20T03:16:12.773Z,22.55
2019-06-20T03:18:45.805Z,22.48
2019-06-20T03:21:20.106Z,22.65
2019-06-20T03:23:54.663Z,22.85
2019-06-20T03:26:28.939Z,23.00
2019-06-20T03:29:03.277Z,23.13
2019-06-20T03:31:37.871Z,23.24
2019-06-20T03:34:12.296Z,23.28
2019-06-20T03:36:46.708Z,23.34
2019-06-20T03:39:21.113Z,23.31
2019-06-20T03:41:55.674Z,23.25
2019-06-20T03:44:30.119Z,23.25
2019-06-20T03:47:04.328Z,23.39
2019-06-20T03:49:38.678Z,23.39
2019-06-20T03:52:12.944Z,22.75
2019-06-20T03:54:47.659Z,22.26
2019-06-20T03:57:21.120Z,21.35
2019-06-20T03:59:55.308Z,21.34
2019-06-20T04:02:29.706Z,21.34
2019-06-20T04:05:03.959Z,21.37
2019-06-20T04:07:38.277Z,21.46
2019-06-20T04:10:13.278Z,21.42
2019-06-20T04:12:47.688Z,21.31
2019-06-20T04:15:22.143Z,21.16
2019-06-20T04:17:56.574Z,21.34
2019-06-20T04:20:31.073Z,21.34
2019-06-20T04:23:05.619Z,21.29
2019-06-20T04:25:40.069Z,21.29
2019-06-20T04:28:14.356Z,21.21
2019-06-20T04:30:48.867Z,21.21
2019-06-20T04:33:21.708Z,21.14
2019-06-20T04:35:55.950Z,21.12
2019-06-20T04:38:30.285Z,21.15
2019-06-20T04:41:04.745Z,21.15
2019-06-20T04:43:38.960Z,21.15
2019-06-20T04:46:27.948Z,20.99
2019-06-20T04:49:01.074Z,21.08
2019-06-20T04:51:35.508Z,21.23
2019-06-20T04:54:10.264Z,21.27
2019-06-20T04:56:44.668Z,21.42
2019-06-20T04:59:18.952Z,21.43
2019-06-20T05:01:53.251Z,21.45
2019-06-20T05:04:27.940Z,21.47
2019-06-20T05:07:13.275Z,21.53
2019-06-20T05:09:47.703Z,21.59
2019-06-20T05:12:21.104Z,21.63
2019-06-20T05:14:55.282Z,21.57
2019-06-20T05:17:29.874Z,21.61
2019-06-20T05:20:04.256Z,21.91
2019-06-20T05:22:38.719Z,21.94
2019-06-20T05:25:13.364Z,21.95
2019-06-20T05:27:47.711Z,22.16
2019-06-20T05:30:20.995Z,22.23
2019-06-20T05:32:54.119Z,22.26
2019-06-20T05:35:28.710Z,22.18
2019-06-20T05:38:02.356Z,22.18
2019-06-20T05:40:38.280Z,22.32
2019-06-20T05:43:12.963Z,22.52
2019-06-20T05:45:48.783Z,22.76
2019-06-20T05:48:25.413Z,22.94
2019-06-20T05:50:59.958Z,22.94
2019-06-20T05:53:34.282Z,23.22
2019-06-20T05:56:08.828Z,23.21
2019-06-20T05:58:43.303Z,23.43
2019-06-20T06:01:17.944Z,23.65
2019-06-20T06:03:52.305Z,23.85
2019-06-20T06:06:26.956Z,23.85
2019-06-20T06:09:00.021Z,23.80
2019-06-20T06:11:32.871Z,23.79
2019-06-20T06:14:07.643Z,23.86
2019-06-20T06:16:44.228Z,23.92
2019-06-20T06:19:17.075Z,23.91
2019-06-20T06:21:51.349Z,23.78
2019-06-20T06:24:26.228Z,23.74
2019-06-20T06:27:00.919Z,23.74
2019-06-20T06:29:35.324Z,23.74
2019-06-20T06:32:09.893Z,23.70
2019-06-20T06:34:44.334Z,23.70
2019-06-20T06:37:19.272Z,23.70
2019-06-20T06:39:53.772Z,23.67
2019-06-20T06:42:28.391Z,23.59
2019-06-20T06:45:02.939Z,23.59
2019-06-20T06:47:37.354Z,23.73
2019-06-20T06:50:13.898Z,23.76
2019-06-20T06:52:49.340Z,23.72
2019-06-20T06:55:27.449Z,23.71
2019-06-20T06:58:00.283Z,23.57
2019-06-20T07:00:34.735Z,23.62
2019-06-20T07:03:08.851Z,23.62
2019-06-20T07:05:45.214Z,23.80
2019-06-20T07:08:19.740Z,24.03
2019-06-20T07:10:54.090Z,24.03
2019-06-20T07:13:28.302Z,23.95
2019-06-20T07:16:03.186Z,23.82
2019-06-20T07:18:37.879Z,23.98
2019-06-20T07:21:12.662Z,24.16
2019-06-20T07:23:47.328Z,24.15
2019-06-20T07:26:21.797Z,24.37
2019-06-20T07:28:56.363Z,24.44
2019-06-20T07:31:31.285Z,24.68
2019-06-20T07:34:06.299Z,24.44
2019-06-20T07:36:41.299Z,24.68
2019-06-20T07:39:16.075Z,24.94
2019-06-20T07:41:50.692Z,25.26
2019-06-20T07:44:23.665Z,25.26
2019-06-20T07:46:57.913Z,25.51
2019-06-20T07:49:32.336Z,25.60
2019-06-20T07:52:06.858Z,25.35
2019-06-20T07:54:41.275Z,25.29
2019-06-20T07:57:15.868Z,25.30
2019-06-20T07:59:50.250Z,24.94
2019-06-20T08:02:25.648Z,24.62
2019-06-20T08:05:00.094Z,24.62
2019-06-20T08:07:34.560Z,24.33
2019-06-20T08:10:10.728Z,24.33
2019-06-20T08:12:43.698Z,24.40
2019-06-20T08:15:20.413Z,24.53
2019-06-20T08:17:54.973Z,24.45
2019-06-20T08:20:29.685Z,24.77
2019-06-20T08:23:03.949Z,24.77
2019-06-20T08:25:38.325Z,25.27
2019-06-20T08:28:12.701Z,25.27
2019-06-20T08:30:45.680Z,25.42
2019-06-20T08:33:19.954Z,25.54
2019-06-20T08:35:54.315Z,25.64
2019-06-20T08:38:28.783Z,25.64
2019-06-20T08:41:02.217Z,25.48
2019-06-20T08:43:36.645Z,26.37
2019-06-20T08:46:10.944Z,26.37
2019-06-20T08:48:45.120Z,26.94
2019-06-20T08:51:20.680Z,27.28
2019-06-20T08:53:56.319Z,28.11
2019-06-20T08:58:50.342Z,28.93
2019-06-20T09:01:25.205Z,29.14
2019-06-20T09:04:00.097Z,29.14
2019-06-20T09:06:34.697Z,29.25
2019-06-20T09:09:09.280Z,29.11
2019-06-20T09:11:43.341Z,28.55
2019-06-20T09:14:17.880Z,28.55
2019-06-20T09:16:52.290Z,28.59
2019-06-20T09:22:04.976Z,29.06
2019-06-20T09:24:39.645Z,29.53
2019-06-20T09:27:13.956Z,29.53
2019-06-20T09:29:48.272Z,29.49
2019-06-20T09:32:22.752Z,29.53
2019-06-20T09:34:56.944Z,29.62
2019-06-20T09:37:31.290Z,29.49
2019-06-20T09:40:06.182Z,29.34
2019-06-20T09:42:40.958Z,29.41
2019-06-20T09:45:15.903Z,29.07
2019-06-20T09:47:50.967Z,29.07
2019-06-20T09:50:26.663Z,29.53
2019-06-20T09:53:00.690Z,29.53
2019-06-20T09:55:34.921Z,29.85
2019-06-20T09:58:09.281Z,30.26
2019-06-20T10:00:43.875Z,30.84
2019-06-20T10:03:18.272Z,30.66
2019-06-20T10:05:52.704Z,30.98
2019-06-20T10:08:25.683Z,30.99
2019-06-20T10:10:59.957Z,30.42
2019-06-20T10:13:34.315Z,30.17
2019-06-20T10:16:08.724Z,30.17
2019-06-20T10:18:41.676Z,30.42
2019-06-20T10:21:15.949Z,30.43
2019-06-20T10:23:50.272Z,30.16
2019-06-20T10:26:24.890Z,29.92
2019-06-20T10:28:59.127Z,29.60
2019-06-20T10:31:33.671Z,29.30
2019-06-20T10:34:08.073Z,29.30
2019-06-20T10:36:43.968Z,28.73
2019-06-20T10:39:18.781Z,28.73
2019-06-20T10:41:52.343Z,28.66
2019-06-20T10:44:26.745Z,28.78
2019-06-20T10:46:59.656Z,28.94
2019-06-20T10:49:33.948Z,29.01
2019-06-20T10:52:08.718Z,30.13
2019-06-20T10:54:43.239Z,30.74
2019-06-20T10:57:18.665Z,32.06
2019-06-20T10:59:53.078Z,32.06
2019-06-20T11:02:27.675Z,34.31
2019-06-20T11:05:00.631Z,34.31
2019-06-20T11:07:35.075Z,34.58
2019-06-20T11:10:11.275Z,34.20
2019-06-20T11:12:53.039Z,34.20
2019-06-20T11:15:23.610Z,33.36
2019-06-20T11:17:57.136Z,33.52
2019-06-20T11:20:31.591Z,35.43
2019-06-20T11:23:05.940Z,35.43
2019-06-20T11:25:41.627Z,35.28
2019-06-20T11:28:16.266Z,35.50
2019-06-20T11:30:58.169Z,35.26
2019-06-20T11:33:26.922Z,34.50
2019-06-20T11:36:01.278Z,33.78
2019-06-20T11:38:35.951Z,34.88
2019-06-20T11:41:10.271Z,36.57
2019-06-20T11:43:45.109Z,36.97
2019-06-20T11:46:19.674Z,38.39
2019-06-20T11:48:52.666Z,38.39
2019-06-20T11:51:26.951Z,38.39
2019-06-20T11:54:01.289Z,38.44
2019-06-20T11:56:35.853Z,38.44
2019-06-20T11:59:10.254Z,37.21
2019-06-20T12:01:44.941Z,35.27
2019-06-20T12:04:19.280Z,35.47
2019-06-20T12:06:53.711Z,35.14
2019-06-20T12:09:26.703Z,36.40
2019-06-20T12:12:00.944Z,37.86
2019-06-20T12:14:35.276Z,37.10
2019-06-20T12:17:09.696Z,37.10
2019-06-20T12:19:44.578Z,35.79
2019-06-20T12:22:18.948Z,34.74
2019-06-20T12:24:53.630Z,34.03
2019-06-20T12:27:27.890Z,34.69
2019-06-20T12:30:02.322Z,35.55
2019-06-20T12:32:36.942Z,36.71
2019-06-20T12:35:12.280Z,38.20
2019-06-20T12:37:47.914Z,38.04
2019-06-20T12:40:24.708Z,37.28
2019-06-20T12:42:58.929Z,38.53
2019-06-20T12:45:33.297Z,40.93
2019-06-20T12:48:07.711Z,40.93
2019-06-20T12:50:41.476Z,40.06
2019-06-20T12:53:16.871Z,40.53
2019-06-20T12:55:51.345Z,40.82
2019-06-20T12:58:26.761Z,40.87
2019-06-20T13:01:01.335Z,41.07
2019-06-20T13:03:35.882Z,41.54
2019-06-20T13:06:10.275Z,42.05
2019-06-20T13:08:45.245Z,41.03
2019-06-20T13:13:11.945Z,42.59
2019-06-20T13:15:46.965Z,42.49
2019-06-20T13:18:21.332Z,42.57
2019-06-20T13:20:55.781Z,43.30
2019-06-20T13:23:28.796Z,42.87
2019-06-20T13:26:03.033Z,39.53
2019-06-20T13:28:54.152Z,40.98
2019-06-20T13:31:13.765Z,41.45
2019-06-20T13:33:46.870Z,41.62
2019-06-20T13:36:19.672Z,42.57
2019-06-20T13:38:54.142Z,41.86
2019-06-20T13:41:28.690Z,41.30
2019-06-20T13:44:01.694Z,41.98
2019-06-20T13:46:35.964Z,42.79
2019-06-20T13:49:10.672Z,40.69
2019-06-20T13:51:45.893Z,40.69
2019-06-20T13:54:20.281Z,40.38
2019-06-20T13:56:56.247Z,37.34
2019-06-20T13:59:30.709Z,36.10
2019-06-20T14:02:07.020Z,38.92
2019-06-20T14:04:41.044Z,36.86
2019-06-20T14:07:15.943Z,36.46
2019-06-20T14:09:51.157Z,35.26
2019-06-20T14:12:25.668Z,34.29
2019-06-20T14:14:59.946Z,33.97
2019-06-20T14:17:34.284Z,33.75
2019-06-20T14:20:10.276Z,33.12
2019-06-20T14:22:45.145Z,32.86
2019-06-20T14:25:19.878Z,32.65
2019-06-20T14:27:54.334Z,32.17
2019-06-20T14:30:29.106Z,32.44
2019-06-20T14:33:03.679Z,33.67
2019-06-20T14:35:37.938Z,33.67
2019-06-20T14:38:12.353Z,33.60
2019-06-20T14:40:48.271Z,33.17
2019-06-20T14:43:22.963Z,32.71
2019-06-20T14:45:57.748Z,32.64
2019-06-20T14:48:32.289Z,32.44
2019-06-20T14:51:06.770Z,32.73
2019-06-20T14:53:39.814Z,32.73
2019-06-20T14:56:12.873Z,32.44
2019-06-20T14:58:48.533Z,31.68
2019-06-20T15:01:22.891Z,31.22
2019-06-20T15:03:58.277Z,31.56
2019-06-20T15:06:32.691Z,31.92
2019-06-20T15:09:08.728Z,31.56
2019-06-20T15:11:46.525Z,31.29
2019-06-20T15:14:20.985Z,30.73
2019-06-20T15:16:55.465Z,30.81
2019-06-20T15:19:30.764Z,30.81
2019-06-20T15:22:04.300Z,31.02
2019-06-20T15:24:38.742Z,30.99
2019-06-20T15:27:13.646Z,31.12
2019-06-20T15:29:48.922Z,30.84
2019-06-20T15:32:27.977Z,30.92
2019-06-20T15:37:07.660Z,31.14
2019-06-20T15:39:42.963Z,30.90
2019-06-20T15:42:17.302Z,30.78
2019-06-20T15:44:53.441Z,30.38
2019-06-20T15:47:26.820Z,30.24
2019-06-20T15:50:01.330Z,29.95
2019-06-20T15:52:37.140Z,29.84
2019-06-20T15:55:12.835Z,29.85
2019-06-20T15:57:47.433Z,29.88
2019-06-20T16:00:23.925Z,29.70
2019-06-20T16:03:09.423Z,29.65
2019-06-20T16:05:35.960Z,29.65
2019-06-20T16:08:11.317Z,29.59
2019-06-20T16:10:46.297Z,29.59
2019-06-20T16:13:21.469Z,29.50
2019-06-20T16:15:56.722Z,29.52
2019-06-20T16:18:30.370Z,29.80
2019-06-20T16:21:06.290Z,29.89
2019-06-20T16:23:41.321Z,29.85
2019-06-20T16:26:16.336Z,29.92
2019-06-20T16:28:51.358Z,29.95
2019-06-20T16:32:59.008Z,30.08
2019-06-20T16:35:33.935Z,29.55
2019-06-20T16:38:10.355Z,29.55
2019-06-20T16:40:47.868Z,29.41
2019-06-20T16:43:22.594Z,29.04
2019-06-20T16:45:57.509Z,29.04
2019-06-20T16:48:32.288Z,29.12
2019-06-20T16:51:07.334Z,29.04
2019-06-20T16:53:41.707Z,28.99
2019-06-20T16:56:14.694Z,28.99
2019-06-20T16:58:48.942Z,28.93
2019-06-20T17:01:23.364Z,28.96
2019-06-20T17:03:57.880Z,28.99
2019-06-20T17:06:32.289Z,28.79
2019-06-20T17:09:09.392Z,28.82
2019-06-20T17:11:43.946Z,28.68
2019-06-20T17:14:18.318Z,28.72
2019-06-20T17:16:52.959Z,28.86
2019-06-20T17:19:27.320Z,29.00
2019-06-20T17:22:01.968Z,29.03
2019-06-20T17:24:36.292Z,29.04
2019-06-20T17:27:10.879Z,29.10
2019-06-20T17:29:45.272Z,29.14
2019-06-20T17:32:19.746Z,29.05
2019-06-20T17:34:52.799Z,28.84
2019-06-20T17:37:27.127Z,28.89
2019-06-20T17:40:01.750Z,28.95
2019-06-20T17:42:34.825Z,28.94
2019-06-20T17:45:09.936Z,28.91
2019-06-20T17:47:44.385Z,28.86
2019-06-20T17:50:19.627Z,28.77
2019-06-20T17:52:53.968Z,28.76
2019-06-20T17:55:28.309Z,28.66
2019-06-20T17:58:02.963Z,28.66
2019-06-20T18:00:38.782Z,28.60
2019-06-20T18:03:12.120Z,28.56
2019-06-20T18:05:46.635Z,28.45
2019-06-20T18:08:21.273Z,28.45
2019-06-20T18:10:55.685Z,28.35
2019-06-20T18:13:30.119Z,28.30
2019-06-20T18:16:04.742Z,28.21
2019-06-20T18:18:37.871Z,28.15
2019-06-20T18:21:12.291Z,28.06
2019-06-20T18:23:46.717Z,28.08
2019-06-20T18:26:19.800Z,28.03
2019-06-20T18:28:53.966Z,27.92
2019-06-20T18:31:28.320Z,27.86
2019-06-20T18:34:02.897Z,27.77
2019-06-20T18:36:37.293Z,27.73
2019-06-20T18:39:12.304Z,27.40
2019-06-20T18:41:47.731Z,27.40
2019-06-20T18:44:21.301Z,27.20
2019-06-20T18:46:57.263Z,26.99
2019-06-20T18:49:32.277Z,26.99
2019-06-20T18:52:07.953Z,26.99
2019-06-20T18:54:42.722Z,26.50
2019-06-20T18:57:17.289Z,26.50
2019-06-20T18:59:51.940Z,26.20
2019-06-20T19:02:26.320Z,25.46
2019-06-20T19:05:01.154Z,25.46
2019-06-20T19:07:36.523Z,24.82
2019-06-20T19:10:11.336Z,24.82
2019-06-20T19:12:45.964Z,24.65
2019-06-20T19:15:22.295Z,24.73
2019-06-20T19:17:57.304Z,24.86
2019-06-20T19:20:31.753Z,24.88
2019-06-20T19:23:04.798Z,24.90
2019-06-20T19:25:41.420Z,24.85
2019-06-20T19:28:16.462Z,24.82
2019-06-20T19:30:52.690Z,24.80
2019-06-20T19:33:27.296Z,24.68
2019-06-20T19:36:01.954Z,24.69
2019-06-20T19:38:36.878Z,24.71
2019-06-20T19:41:11.464Z,24.71
2019-06-20T19:43:46.074Z,24.78
2019-06-20T19:46:20.697Z,24.75
2019-06-20T19:48:55.289Z,24.75
2019-06-20T19:51:30.291Z,24.76
2019-06-20T19:54:04.790Z,24.76
2019-06-20T19:56:38.069Z,24.75
2019-06-20T19:59:12.402Z,24.73
2019-06-20T20:01:47.333Z,24.75
2019-06-20T20:04:21.948Z,24.66
2019-06-20T20:06:56.446Z,24.65
2019-06-20T20:09:31.273Z,24.68
2019-06-20T20:12:05.748Z,24.67
2019-06-20T20:14:40.278Z,24.67
2019-06-20T20:17:14.993Z,24.69
2019-06-20T20:19:49.756Z,24.69
2019-06-20T20:22:25.296Z,24.69
2019-06-20T20:25:00.301Z,24.67
2019-06-20T20:27:36.302Z,24.67
2019-06-20T20:30:12.326Z,24.62
2019-06-20T20:32:47.264Z,24.59
2019-06-20T20:35:34.801Z,24.55
2019-06-20T20:38:00.519Z,24.52
2019-06-20T20:40:35.296Z,24.50
2019-06-20T20:43:09.955Z,24.52
2019-06-20T20:45:44.704Z,24.51
2019-06-20T20:48:20.318Z,24.48
2019-06-20T20:50:54.954Z,24.46
2019-06-20T20:53:29.290Z,24.40
2019-06-20T20:56:03.739Z,24.41
2019-06-20T20:58:36.837Z,24.38
2019-06-20T21:01:22.303Z,24.38
2019-06-20T21:03:56.673Z,24.38
2019-06-20T21:06:31.329Z,24.38
2019-06-20T21:09:07.334Z,24.37
2019-06-20T21:11:41.946Z,24.37
2019-06-20T21:14:14.867Z,24.35
2019-06-20T21:16:49.299Z,24.34
2019-06-20T21:19:24.103Z,24.37
2019-06-20T21:21:58.821Z,24.26
2019-06-20T21:24:32.870Z,24.26
2019-06-20T21:27:07.108Z,24.23
2019-06-20T21:29:41.663Z,24.13
2019-06-20T21:32:15.959Z,24.13
2019-06-20T21:34:51.365Z,24.15
2019-06-20T21:37:25.947Z,24.11
2019-06-20T21:40:00.503Z,24.05
2019-06-20T21:42:34.982Z,23.99
2019-06-20T21:45:09.641Z,23.88
2019-06-20T21:47:44.004Z,23.89
2019-06-20T21:50:19.680Z,23.92
2019-06-20T21:52:53.042Z,23.92
2019-06-20T21:55:28.277Z,23.79
2019-06-20T21:58:02.922Z,23.65
2019-06-20T22:00:43.644Z,23.53
2019-06-20T22:03:26.618Z,23.48
2019-06-20T22:06:00.298Z,23.48
2019-06-20T22:08:34.791Z,23.45
2019-06-20T22:11:09.294Z,23.45
2019-06-20T22:13:49.316Z,23.53
2019-06-20T22:16:24.744Z,23.53
2019-06-20T22:18:59.980Z,23.55
2019-06-20T22:21:36.552Z,23.62
2019-06-20T22:24:12.472Z,23.62
2019-06-20T22:26:50.898Z,23.58
2019-06-20T22:29:27.303Z,23.32
2019-06-20T22:32:03.968Z,23.16
2019-06-20T22:34:39.279Z,23.16
2019-06-20T22:37:14.278Z,23.16
2019-06-20T22:39:48.778Z,23.26
2019-06-20T22:42:21.990Z,23.25
2019-06-20T22:44:56.274Z,23.22
2019-06-20T22:47:30.759Z,23.11
2019-06-20T22:50:05.301Z,22.88
2019-06-20T22:52:40.275Z,22.71
2019-06-20T22:55:15.293Z,22.64
2019-06-20T22:57:49.928Z,22.56
2019-06-20T23:00:24.445Z,22.50
2019-06-20T23:02:58.946Z,22.36
2019-06-20T23:05:33.284Z,22.08
2019-06-20T23:08:08.131Z,22.08
2019-06-20T23:10:42.874Z,22.17
2019-06-20T23:13:16.090Z,22.21
2019-06-20T23:15:50.106Z,22.21
2019-06-20T23:18:24.676Z,22.17
2019-06-20T23:21:04.681Z,22.16
2019-06-20T23:23:33.654Z,22.16
2019-06-20T23:26:09.557Z,22.17
2019-06-20T23:28:44.382Z,22.09
2019-06-20T23:31:18.892Z,22.05
2019-06-20T23:33:53.283Z,22.05
2019-06-20T23:36:27.726Z,21.85
2019-06-20T23:39:00.661Z,21.85
2019-06-20T23:41:35.288Z,21.64
2019-06-20T23:44:10.744Z,21.64
2019-06-20T23:46:45.268Z,21.53
2019-06-20T23:49:19.935Z,21.53
2019-06-20T23:51:59.277Z,21.47
2019-06-20T23:54:33.726Z,21.36
2019-06-20T23:57:06.670Z,21.28
2019-06-20T23:59:41.196Z,21.26
